Wellington, Kentucky
Current Conditions -  °F | °C
As of 3:10 PM on Thursday 29 Jan 2015 (Local Time) from KSYM Reporting Station
Overcast Overcast  
Wind Chill: 52°   Ceiling: 3800
Heat Index: 52°   Visibility: 10mi
Dew Point: 39°   Wind: 18mph
Humidity: 62%   Direction: 240°WSW
Pressure: 29.89"   Gusts: 25mph
Location:  37.98°N, 83.47°W
Report Text: KSYM 292010Z AUTO 24016G22KT 10SM OVC038 11/04 A2989 RMK AO2
Loading
Personal Weather Stations






























Interactive Weather Map New forecast layout! Learn more

10-Day Weather Forecast

Advertisements
Track Severe Weather on mobile